Time;durP1;ratioP1;P1;durP2;ratioP2;P2;SDS_P1;SDS_P2;PMS_P1;PMS_P2;Temp;Humidity;BMP_temperature;BMP_pressure;BME280_temperature;BME280_humidity;BME280_pressure;Samples;Min_cycle;Max_cycle;Signal;HPM_P1;HPM_P2
2022/05/06 00:00:11;;;;;;;25.97;10.93;;;;;;;7.42;45.57;100421.78;1783756;80;21076;-44
2022/05/06 00:02:38;;;;;;;17.25;9.80;;;;;;;7.38;45.58;100426.22;1783858;80;21040;-44
2022/05/06 00:05:07;;;;;;;16.27;9.50;;;;;;;7.35;45.73;100428.20;1783696;80;23151;-44
2022/05/06 00:07:34;;;;;;;20.10;8.95;;;;;;;7.34;45.85;100423.11;1783442;80;21004;-44
2022/05/06 00:10:03;;;;;;;16.85;9.45;;;;;;;7.35;46.22;100428.20;1783531;80;21586;-44
2022/05/06 00:12:31;;;;;;;;;;;;;;;7.33;46.40;100423.66;1786625;80;20987;-43
2022/05/06 00:14:58;;;;;;;18.07;9.50;;;;;;;7.27;46.34;100424.89;1783818;80;20205;-43
2022/05/06 00:17:25;;;;;;;17.37;8.95;;;;;;;7.14;46.39;100426.34;1779909;80;21065;-43
2022/05/06 00:19:52;;;;;;;18.87;9.03;;;;;;;7.14;46.14;100428.50;1783744;80;21620;-44
2022/05/06 00:22:19;;;;;;;17.27;9.88;;;;;;;7.13;46.28;100426.09;1784032;80;20952;-44
2022/05/06 00:24:45;;;;;;;20.27;9.18;;;;;;;7.09;46.42;100428.62;1783945;80;20980;-44
2022/05/06 00:27:13;;;;;;;14.33;8.50;;;;;;;7.08;46.43;100427.58;1784107;80;20976;-44
2022/05/06 00:29:42;;;;;;;17.77;8.60;;;;;;;7.07;46.55;100430.05;1783876;80;21133;-44
2022/05/06 00:32:09;;;;;;;16.82;8.33;;;;;;;7.06;46.56;100431.95;1783766;80;21491;-44
2022/05/06 00:34:36;;;;;;;23.73;9.13;;;;;;;7.04;46.61;100430.11;1783969;80;21012;-44
2022/05/06 00:37:04;;;;;;;13.38;8.33;;;;;;;7.01;46.83;100424.00;1783965;80;21021;-43
2022/05/06 00:39:31;;;;;;;14.15;8.38;;;;;;;6.98;47.01;100426.74;1784230;80;21036;-42
2022/05/06 00:41:58;;;;;;;14.47;8.33;;;;;;;6.97;47.12;100423.03;1783911;80;21129;-42
2022/05/06 00:44:25;;;;;;;15.98;8.10;;;;;;;6.95;47.32;100429.27;1783729;80;21040;-44
2022/05/06 00:46:55;;;;;;;15.18;8.03;;;;;;;6.94;47.27;100420.94;1783814;80;21600;-43
2022/05/06 00:49:21;;;;;;;8.60;5.60;;;;;;;6.94;47.31;100426.33;1783555;80;20936;-44
2022/05/06 00:51:51;;;;;;;14.05;7.65;;;;;;;6.93;47.52;100430.12;1783699;80;21083;-44
2022/05/06 00:54:21;;;;;;;13.00;7.50;;;;;;;6.93;47.64;100422.03;1783537;79;23133;-44
2022/05/06 00:56:48;;;;;;;12.33;5.53;;;;;;;6.93;47.43;100424.73;1782290;80;20945;-44
2022/05/06 00:59:16;;;;;;;20.95;7.97;;;;;;;6.89;47.43;100423.20;1782017;80;20960;-44
2022/05/06 01:01:43;;;;;;;14.98;7.15;;;;;;;6.87;47.54;100421.94;1781995;80;20953;-43
2022/05/06 01:04:11;;;;;;;12.03;6.90;;;;;;;6.85;47.43;100426.83;1782106;80;20961;-44
2022/05/06 01:06:39;;;;;;;13.60;7.35;;;;;;;6.83;47.44;100423.09;1777315;80;21127;-43
2022/05/06 01:09:07;;;;;;;15.23;7.70;;;;;;;6.81;47.79;100422.62;1781749;80;21601;-43
2022/05/06 01:11:34;;;;;;;12.03;6.90;;;;;;;6.79;47.83;100419.42;1781954;80;21008;-44
2022/05/06 01:14:02;;;;;;;13.03;7.12;;;;;;;6.79;48.11;100428.05;1782048;80;21523;-44
2022/05/06 01:16:35;;;;;;;15.58;8.00;;;;;;;6.79;48.20;100423.47;1752434;80;21491;-44
2022/05/06 01:19:04;;;;;;;14.23;7.55;;;;;;;6.80;48.21;100420.22;1778821;80;21044;-44
2022/05/06 01:21:38;;;;;;;16.23;7.12;;;;;;;6.79;48.31;100428.05;1778311;80;20993;-44
2022/05/06 01:24:06;;;;;;;14.58;6.67;;;;;;;6.78;48.20;100431.84;1778408;80;21044;-43
2022/05/06 01:26:58;;;;;;;16.35;6.83;;;;;;;6.74;48.41;100438.96;1778455;80;21044;-44
2022/05/06 01:29:25;;;;;;;15.53;7.45;;;;;;;6.71;48.46;100430.95;1778590;80;21068;-43
2022/05/06 01:31:53;;;;;;;16.32;7.97;;;;;;;6.68;48.55;100438.86;1778384;80;21228;-43
2022/05/06 01:34:25;;;;;;;16.25;8.28;;;;;;;6.64;48.75;100431.13;1778521;80;21530;-44
2022/05/06 01:36:55;;;;;;;16.10;7.30;;;;;;;6.61;48.74;100434.44;1778284;80;20960;-43
2022/05/06 01:39:26;;;;;;;17.92;8.35;;;;;;;6.52;48.75;100436.53;1778639;80;21518;-43
2022/05/06 01:41:53;;;;;;;16.40;7.22;;;;;;;6.47;48.90;100435.30;1778187;80;21626;-43
2022/05/06 01:44:22;;;;;;;15.13;7.58;;;;;;;6.42;49.03;100438.13;1778594;80;21126;-43
2022/05/06 01:46:49;;;;;;;20.92;7.62;;;;;;;6.38;49.13;100434.45;1778297;80;21510;-44
2022/05/06 01:49:21;;;;;;;16.05;6.92;;;;;;;6.34;49.15;100439.41;1780067;80;21046;-44
2022/05/06 01:51:48;;;;;;;15.15;6.65;;;;;;;6.34;49.45;100440.75;1773574;80;21597;-44
2022/05/06 01:54:16;;;;;;;17.02;6.97;;;;;;;6.32;49.40;100437.01;1741265;82;21036;-44
2022/05/06 01:56:48;;;;;;;15.88;7.10;;;;;;;6.30;49.45;100436.50;1790076;80;21211;-43
2022/05/06 01:59:16;;;;;;;11.93;6.65;;;;;;;6.27;49.48;100439.81;1773659;80;21537;-44
2022/05/06 02:01:43;;;;;;;12.73;6.75;;;;;;;6.25;49.31;100435.81;1790295;80;21047;-44
2022/05/06 02:06:57;;;;;;;12.53;6.85;;;;;;;6.18;49.38;100441.64;1741495;82;21031;-44
2022/05/06 02:09:23;;;;;;;14.83;6.83;;;;;;;6.13;49.20;100448.48;1773624;80;21268;-44
2022/05/06 02:11:55;;;;;;;11.80;6.60;;;;;;;6.09;49.34;100446.16;1762372;81;20978;-43
2022/05/06 02:14:24;;;;;;;17.15;6.58;;;;;;;6.08;49.42;100444.55;1791962;80;20995;-44
2022/05/06 02:16:52;;;;;;;10.98;5.95;;;;;;;6.04;49.37;100443.03;1772842;80;21608;-44
2022/05/06 02:19:21;;;;;;;12.98;6.53;;;;;;;6.03;49.37;100450.84;1773944;80;21019;-44
2022/05/06 02:21:49;;;;;;;17.15;6.50;;;;;;;6.01;49.69;100451.69;1740012;82;21161;-44
2022/05/06 02:24:35;;;;;;;16.50;6.70;;;;;;;5.98;49.90;100450.16;1790393;80;20999;-44
2022/05/06 02:27:05;;;;;;;14.40;6.53;;;;;;;5.95;50.20;100452.91;1773669;80;20972;-44
2022/05/06 02:29:31;;;;;;;18.40;7.10;;;;;;;5.90;50.30;100445.49;1790538;80;21012;-43
2022/05/06 02:34:47;;;;;;;10.38;6.62;;;;;;;5.87;50.43;100446.87;1741800;82;21210;-44
2022/05/06 02:37:15;;;;;;;12.23;6.70;;;;;;;5.87;50.50;100447.42;1790575;80;21004;-44
2022/05/06 02:39:44;;;;;;;11.93;6.45;;;;;;;5.88;50.58;100451.72;1773725;80;20987;-43
2022/05/06 02:42:15;;;;;;;13.25;6.87;;;;;;;5.87;50.54;100452.27;1741172;82;20929;-43
2022/05/06 02:44:44;;;;;;;11.18;7.03;;;;;;;5.55;50.59;100395.33;1789621;80;21027;-43
2022/05/06 02:47:12;;;;;;;12.25;6.62;;;;;;;5.91;50.41;100447.86;1773763;80;21865;-43
2022/05/06 02:49:39;;;;;;;9.85;6.30;;;;;;;5.94;50.29;100450.52;1785417;80;21546;-43
2022/05/06 02:52:09;;;;;;;12.88;6.20;;;;;;;5.96;50.38;100445.61;1783602;80;20940;-44
2022/05/06 02:54:37;;;;;;;10.68;5.85;;;;;;;6.00;50.15;100446.63;1782753;80;21569;-43
2022/05/06 02:57:05;;;;;;;9.10;5.60;;;;;;;6.03;49.75;100454.89;1783619;80;21051;-43
2022/05/06 02:59:32;;;;;;;12.93;5.70;;;;;;;6.07;49.51;100450.48;1783028;80;21803;-44
2022/05/06 03:02:01;;;;;;;11.80;6.05;;;;;;;6.13;49.23;100441.75;1783548;80;20980;-44
2022/05/06 03:04:29;;;;;;;7.00;4.75;;;;;;;6.19;48.93;100447.28;1783587;80;20979;-44
2022/05/06 03:06:56;;;;;;;9.05;5.17;;;;;;;6.24;48.69;100443.13;1783412;80;21023;-44
2022/05/06 03:09:30;;;;;;;14.10;5.60;;;;;;;6.29;48.42;100445.70;1783474;80;21143;-44
2022/05/06 03:11:57;;;;;;;9.50;5.62;;;;;;;6.35;48.22;100450.40;1783597;80;21194;-44
2022/05/06 03:14:26;;;;;;;12.18;5.17;;;;;;;6.39;47.98;100447.37;1783974;80;21029;-44
2022/05/06 03:16:55;;;;;;;10.68;5.22;;;;;;;6.47;47.86;100456.86;1783561;80;20945;-43
2022/05/06 03:19:24;;;;;;;8.93;4.85;;;;;;;6.53;47.71;100454.84;1783721;80;21054;-44
2022/05/06 03:21:59;;;;;;;9.28;4.87;;;;;;;6.62;47.44;100464.33;1783845;80;21521;-43
2022/05/06 03:24:22;;;;;;;11.20;5.35;;;;;;;6.71;47.31;100469.23;1783774;80;21261;-44
2022/05/06 03:26:49;;;;;;;10.95;5.17;;;;;;;6.80;47.13;100471.43;1783734;80;21557;-44
2022/05/06 03:29:16;;;;;;;10.85;5.08;;;;;;;6.87;47.00;100474.50;1783705;80;21047;-43
2022/05/06 03:31:43;;;;;;;9.75;4.58;;;;;;;6.93;46.82;100469.20;1783885;80;21608;-43
2022/05/06 03:34:11;;;;;;;10.88;5.25;;;;;;;7.01;46.64;100472.53;1783929;80;21044;-43
2022/05/06 03:36:40;;;;;;;7.35;4.80;;;;;;;7.08;46.65;100478.27;1784108;80;21165;-43
2022/05/06 03:39:10;;;;;;;7.87;4.85;;;;;;;7.15;46.39;100479.98;1783998;80;20913;-43
2022/05/06 03:41:42;;;;;;;10.78;4.70;;;;;;;7.21;46.34;100480.07;1783617;80;21596;-43
2022/05/06 03:44:09;;;;;;;17.25;5.30;;;;;;;7.27;46.26;100482.09;1783915;80;20925;-43
2022/05/06 03:46:38;;;;;;;10.20;5.15;;;;;;;7.36;46.14;100487.77;1784026;80;21573;-43
2022/05/06 03:49:05;;;;;;;10.48;4.92;;;;;;;7.45;46.05;100487.03;1783720;80;23145;-43
2022/05/06 03:51:33;;;;;;;8.15;4.67;;;;;;;7.52;45.84;100489.51;1788780;80;21000;-43
2022/05/06 03:54:03;;;;;;;8.53;3.92;;;;;;;7.60;45.79;100482.00;1773989;80;21087;-43
2022/05/06 03:56:30;;;;;;;9.13;4.53;;;;;;;7.69;45.68;100482.05;1790709;80;21040;-43
2022/05/06 03:58:59;;;;;;;7.97;4.20;;;;;;;7.76;45.73;100480.47;1774222;80;21067;-43
2022/05/06 04:01:26;;;;;;;10.18;4.85;;;;;;;7.84;45.67;100479.69;1790734;80;21220;-43
2022/05/06 04:03:55;;;;;;;8.40;4.65;;;;;;;7.94;45.84;100489.41;1773913;80;21049;-43
2022/05/06 04:06:23;;;;;;;8.55;4.67;;;;;;;8.01;45.74;100485.70;1790200;80;21507;-44
2022/05/06 04:08:52;;;;;;;9.98;4.20;;;;;;;8.12;45.77;100491.05;1774051;80;22095;-43
2022/05/06 04:11:20;;;;;;;10.05;4.05;;;;;;;8.20;45.37;100490.27;1741830;82;21024;-43
2022/05/06 04:13:47;;;;;;;8.43;3.80;;;;;;;8.30;45.18;100489.19;1790725;80;21224;-43
2022/05/06 04:16:14;;;;;;;10.93;4.33;;;;;;;8.40;44.83;100493.49;1773690;80;21024;-43
2022/05/06 04:18:41;;;;;;;7.08;4.37;;;;;;;8.52;44.71;100497.73;1741823;82;21051;-43
2022/05/06 04:23:53;;;;;;;6.28;3.27;;;;;;;8.72;43.50;100497.86;1790546;80;21036;-43
2022/05/06 04:26:20;;;;;;;8.15;4.20;;;;;;;8.82;43.08;100502.14;1760809;81;21252;-43
2022/05/06 04:28:51;;;;;;;9.05;3.80;;;;;;;8.93;42.81;100506.13;1792341;80;20901;-43
2022/05/06 04:31:17;;;;;;;5.60;3.95;;;;;;;9.05;42.85;100506.83;1773995;80;21003;-43
2022/05/06 04:33:45;;;;;;;6.20;3.60;;;;;;;9.15;42.86;100504.56;1790341;80;20963;-43
2022/05/06 04:36:14;;;;;;;7.58;3.58;;;;;;;9.27;42.51;100503.11;1773611;80;21005;-43
2022/05/06 04:38:42;;;;;;;7.70;3.77;;;;;;;9.37;42.09;100504.91;1790483;80;21088;-44
2022/05/06 04:41:09;;;;;;;8.95;3.80;;;;;;;9.47;41.65;100499.70;1773926;80;21004;-43
2022/05/06 04:43:36;;;;;;;7.67;3.92;;;;;;;9.57;41.60;100502.86;1790407;80;21011;-43
2022/05/06 04:46:03;;;;;;;8.68;3.60;;;;;;;9.67;41.34;100504.41;1773748;80;21494;-43
2022/05/06 04:48:32;;;;;;;4.60;3.27;;;;;;;9.77;41.29;100497.28;1790423;80;21055;-44
2022/05/06 04:51:01;;;;;;;8.00;3.65;;;;;;;9.88;41.38;100499.83;1767176;80;21580;-43
2022/05/06 04:53:28;;;;;;;6.12;3.35;;;;;;;10.00;41.03;100501.85;1725829;83;20961;-43
2022/05/06 04:55:55;;;;;;;6.78;3.45;;;;;;;10.11;40.66;100500.92;1741701;82;21494;-43
2022/05/06 04:58:24;;;;;;;6.50;3.20;;;;;;;10.23;40.76;100502.38;1740854;82;20988;-44
2022/05/06 05:00:50;;;;;;;4.42;2.80;;;;;;;10.35;39.87;100509.23;1741863;82;21540;-44
2022/05/06 05:03:20;;;;;;;5.40;2.80;;;;;;;10.50;39.77;100512.72;1788025;80;21109;-43
2022/05/06 05:05:48;;;;;;;5.58;2.87;;;;;;;10.61;39.58;100509.83;1792880;80;21526;-44
2022/05/06 05:08:16;;;;;;;5.90;2.42;;;;;;;10.73;39.59;100511.81;1792893;80;21573;-44
2022/05/06 05:10:46;;;;;;;;;;;;;;;10.85;39.07;100515.36;1795498;80;21028;-43
2022/05/06 05:13:13;;;;;;;3.70;2.58;;;;;;;10.97;37.78;100509.77;1787760;80;20194;-43
2022/05/06 05:15:41;;;;;;;7.83;2.20;;;;;;;11.00;38.27;100510.44;1792739;80;21236;-43
2022/05/06 05:18:09;;;;;;;4.50;2.50;;;;;;;11.13;37.40;100505.30;1792785;80;20992;-44
2022/05/06 05:20:38;;;;;;;3.70;2.30;;;;;;;11.26;36.95;100505.00;1792818;80;20975;-43
2022/05/06 05:23:05;;;;;;;4.55;2.33;;;;;;;11.39;37.41;100505.80;1792518;80;21074;-44
2022/05/06 05:25:34;;;;;;;3.65;2.42;;;;;;;11.52;36.78;100509.34;1792603;80;20975;-44
2022/05/06 05:28:01;;;;;;;3.30;2.22;;;;;;;11.63;36.26;100513.98;1792508;80;21118;-44
2022/05/06 05:30:30;;;;;;;4.50;2.10;;;;;;;11.72;35.70;100505.19;1792433;80;21510;-44
2022/05/06 05:32:58;;;;;;;3.55;2.10;;;;;;;11.83;35.21;100514.25;1792413;80;20981;-44
2022/05/06 05:35:25;;;;;;;4.20;2.40;;;;;;;11.89;35.00;100522.41;1792669;80;21601;-43
2022/05/06 05:37:54;;;;;;;5.55;2.37;;;;;;;11.94;34.33;100514.83;1792554;79;21513;-43
2022/05/06 05:40:21;;;;;;;5.80;2.40;;;;;;;11.99;34.73;100511.89;1792619;79;21120;-44
2022/05/06 05:42:48;;;;;;;4.55;2.00;;;;;;;12.07;34.34;100510.17;1792634;79;21534;-43
2022/05/06 05:48:22;;;;;;;2.60;2.00;;;;;;;12.28;34.36;100510.84;1792857;79;20897;-43
2022/05/06 05:50:54;;;;;;;7.50;1.98;;;;;;;12.40;33.44;100514.87;1789178;80;21012;-44
2022/05/06 05:53:22;;;;;;;5.28;2.20;;;;;;;12.17;33.61;100458.86;1777274;80;21534;-43
2022/05/06 05:55:50;;;;;;;5.78;2.02;;;;;;;12.57;33.39;100504.31;1729166;83;21013;-43
2022/05/06 05:58:18;;;;;;;4.92;2.08;;;;;;;12.67;33.39;100505.75;1752678;81;21097;-44
2022/05/06 06:00:48;;;;;;;3.02;1.90;;;;;;;12.77;32.98;100506.62;1752817;81;21527;-43
2022/05/06 06:03:15;;;;;;;4.15;2.10;;;;;;;12.87;33.29;100515.66;1752693;81;21012;-44
2022/05/06 06:05:44;;;;;;;8.13;2.47;;;;;;;12.99;32.67;100515.59;1752654;81;21230;-44
2022/05/06 06:08:12;;;;;;;6.03;2.10;;;;;;;13.07;32.73;100519.52;1752645;81;21035;-44
2022/05/06 06:10:41;;;;;;;5.40;2.22;;;;;;;13.18;32.63;100507.59;1752915;81;21532;-43
2022/05/06 06:13:11;;;;;;;3.47;2.02;;;;;;;13.29;31.95;100518.20;1752893;81;21533;-43
2022/05/06 06:15:41;;;;;;;8.05;2.05;;;;;;;13.38;31.97;100519.40;1752752;81;21075;-44
2022/05/06 06:18:07;;;;;;;6.42;2.08;;;;;;;13.44;31.75;100517.44;1752757;81;21129;-44
2022/05/06 06:20:37;;;;;;;6.10;2.00;;;;;;;13.54;31.34;100515.33;1752906;81;21013;-44
2022/05/06 06:23:04;;;;;;;2.22;1.35;;;;;;;13.63;31.87;100520.83;1753186;81;21091;-43
2022/05/06 06:25:33;;;;;;;7.92;2.02;;;;;;;13.76;32.08;100514.70;1752732;81;21086;-44
2022/05/06 06:28:00;;;;;;;5.30;1.98;;;;;;;13.89;31.09;100514.25;1752821;81;21099;-44
2022/05/06 06:30:28;;;;;;;3.47;2.02;;;;;;;14.04;31.16;100514.02;1752931;81;21201;-44
2022/05/06 06:32:57;;;;;;;4.87;2.25;;;;;;;14.19;31.09;100514.56;1752334;81;21541;-44
2022/05/06 06:35:25;;;;;;;2.80;1.95;;;;;;;14.30;30.81;100519.70;1752724;81;20988;-44
2022/05/06 06:37:54;;;;;;;5.30;1.90;;;;;;;14.42;30.17;100513.94;1752676;81;21013;-44
2022/05/06 06:40:22;;;;;;;5.60;2.00;;;;;;;14.52;29.89;100510.66;1753032;81;21075;-44
2022/05/06 06:42:50;;;;;;;7.10;1.65;;;;;;;14.62;30.16;100512.81;1752570;81;23152;-44
2022/05/06 06:45:35;;;;;;;3.45;1.90;;;;;;;14.76;29.45;100508.41;1752738;81;21553;-44
2022/05/06 06:48:10;;;;;;;10.18;2.52;;;;;;;14.89;29.07;100512.38;1703489;81;21036;-43
2022/05/06 06:50:44;;;;;;;3.33;1.87;;;;;;;14.98;29.66;100519.77;1751304;81;21044;-44
2022/05/06 06:53:20;;;;;;;5.53;2.10;;;;;;;15.09;28.63;100514.73;1746105;81;21068;-44
2022/05/06 06:55:46;;;;;;;3.22;1.80;;;;;;;15.22;28.23;100517.52;1752731;81;21222;-44
2022/05/06 06:58:14;;;;;;;3.25;2.00;;;;;;;15.38;28.50;100522.09;1752735;81;21423;-44
2022/05/06 07:00:45;;;;;;;6.45;2.27;;;;;;;15.53;28.27;100515.75;1752775;81;21105;-44
2022/05/06 07:03:12;;;;;;;3.22;2.20;;;;;;;15.65;28.26;100515.55;1751981;81;21550;-44
2022/05/06 07:12:00;;;;;;;3.35;2.02;;;;;;;15.94;27.51;100523.06;1755709;81;21156;-44
2022/05/06 07:14:29;;;;;;;5.33;1.90;;;;;;;16.06;27.16;100520.14;1755212;81;20979;-45
2022/05/06 07:16:56;;;;;;;6.95;2.20;;;;;;;16.22;27.26;100525.43;1755831;81;20940;-44
2022/05/06 07:19:23;;;;;;;4.20;2.22;;;;;;;16.36;26.22;100522.89;1755852;81;21026;-44
2022/05/06 07:21:49;;;;;;;4.67;2.22;;;;;;;16.46;25.44;100526.94;1755738;81;20983;-44
2022/05/06 07:24:20;;;;;;;5.35;2.02;;;;;;;16.50;25.67;100514.91;1755848;81;21190;-44
2022/05/06 07:26:47;;;;;;;5.15;2.10;;;;;;;16.50;25.71;100517.64;1757908;80;21514;-44
2022/05/06 07:29:16;;;;;;;4.42;2.00;;;;;;;16.52;26.34;100515.88;1773251;81;20945;-44
2022/05/06 07:31:44;;;;;;;3.00;1.90;;;;;;;16.64;26.66;100511.59;1773382;81;21050;-44
2022/05/06 07:34:12;;;;;;;3.60;2.00;;;;;;;16.84;26.37;100512.22;1773482;80;21539;-45
2022/05/06 07:36:42;;;;;;;4.30;1.80;;;;;;;17.05;25.94;100510.29;1773259;81;21883;-44
2022/05/06 07:39:13;;;;;;;6.95;2.20;;;;;;;17.19;25.27;100506.33;1773143;81;21560;-44
2022/05/06 07:41:39;;;;;;;5.05;2.17;;;;;;;17.29;25.38;100511.92;1773293;81;20998;-44
2022/05/06 07:44:08;;;;;;;5.92;2.00;;;;;;;17.45;25.25;100508.95;1772969;80;21006;-44
2022/05/06 07:46:36;;;;;;;4.45;2.12;;;;;;;17.60;24.56;100507.95;1773016;80;21014;-44
2022/05/06 07:49:04;;;;;;;3.83;2.00;;;;;;;17.67;24.41;100506.62;1773035;81;21130;-44
2022/05/06 07:51:30;;;;;;;5.53;2.12;;;;;;;17.74;24.28;100508.06;1772869;81;21004;-44
2022/05/06 07:53:57;;;;;;;2.85;2.08;;;;;;;17.89;24.41;100502.69;1773046;80;21464;-44
2022/05/06 07:56:25;;;;;;;5.55;2.10;;;;;;;18.03;24.29;100493.18;1773149;81;21084;-45
2022/05/06 07:58:53;;;;;;;3.87;2.05;;;;;;;18.15;23.68;100491.51;1773033;81;20957;-45
2022/05/06 08:06:52;;;;;;;4.30;2.42;;;;;;;18.42;23.25;100495.58;1773156;81;20986;-45
2022/05/06 08:09:20;;;;;;;5.12;2.33;;;;;;;18.50;23.27;100501.30;1773522;81;21020;-44
2022/05/06 08:11:49;;;;;;;5.53;2.65;;;;;;;18.54;22.35;100499.99;1773436;81;21574;-44
2022/05/06 08:14:16;;;;;;;4.78;2.40;;;;;;;18.47;22.55;100499.33;1773222;81;21143;-45
2022/05/06 08:16:44;;;;;;;3.55;2.33;;;;;;;18.41;22.40;100500.06;1772786;81;21093;-44
2022/05/06 08:19:11;;;;;;;5.05;2.15;;;;;;;18.43;22.60;100494.99;1772954;81;21077;-44
2022/05/06 08:21:37;;;;;;;5.60;2.40;;;;;;;18.56;22.90;100494.30;1772339;81;20988;-44
2022/05/06 08:24:06;;;;;;;5.37;2.40;;;;;;;18.72;22.55;100499.48;1772411;81;21068;-45
2022/05/06 08:26:33;;;;;;;4.00;2.02;;;;;;;18.84;22.33;100495.58;1772312;81;21125;-45
2022/05/06 08:28:59;;;;;;;6.65;2.08;;;;;;;18.92;22.36;100493.07;1772452;81;20981;-45
2022/05/06 08:31:27;;;;;;;5.05;2.30;;;;;;;19.08;22.24;100499.77;1772457;81;20965;-44
2022/05/06 08:33:54;;;;;;;4.10;2.37;;;;;;;19.23;22.06;100492.94;1772361;81;20981;-44
2022/05/06 08:36:21;;;;;;;2.90;1.95;;;;;;;19.40;21.91;100491.60;1772686;81;21037;-44
2022/05/06 08:38:49;;;;;;;6.25;2.50;;;;;;;19.52;21.81;100484.94;1772526;80;21224;-44
2022/05/06 08:41:16;;;;;;;11.90;4.83;;;;;;;19.53;21.53;100484.56;1772451;81;20921;-44
2022/05/06 08:43:42;;;;;;;3.95;2.58;;;;;;;19.46;21.66;100487.30;1772564;81;21004;-45
2022/05/06 08:51:40;;;;;;;5.00;2.12;;;;;;;19.69;21.95;100471.80;1772769;80;21296;-44
2022/05/06 08:54:07;;;;;;;4.70;2.50;;;;;;;19.88;21.33;100473.34;1772448;81;20985;-45
2022/05/06 08:56:34;;;;;;;4.20;1.87;;;;;;;20.05;20.82;100472.52;1772619;80;20997;-45
2022/05/06 08:59:00;;;;;;;6.75;2.00;;;;;;;20.12;21.56;100461.51;1772385;80;21017;-45
2022/05/06 09:01:27;;;;;;;6.85;2.50;;;;;;;20.16;21.28;100461.48;1772563;80;21049;-45
2022/05/06 09:03:55;;;;;;;4.20;2.00;;;;;;;20.25;20.98;100461.27;1772379;80;21130;-44
2022/05/06 09:06:27;;;;;;;5.95;2.22;;;;;;;20.28;20.77;100453.58;1760178;81;21575;-44
2022/05/06 09:08:56;;;;;;;6.00;2.25;;;;;;;20.21;21.02;100453.61;1762165;81;21046;-44
2022/05/06 09:16:39;;;;;;;2.70;2.10;;;;;;;20.32;20.15;100455.78;1761759;81;21521;-44
2022/05/06 09:16:50;;;;;;;4.75;2.47;;;;;;;20.42;20.76;100456.93;1758359;81;21249;-45
2022/05/06 09:19:27;;;;;;;7.20;2.40;;;;;;;20.50;20.21;100458.46;1761872;81;21001;-45
2022/05/06 09:22:14;;;;;;;7.05;1.98;;;;;;;20.52;20.59;100453.94;1762284;81;20977;-45
2022/05/06 09:24:43;;;;;;;7.40;2.37;;;;;;;20.62;20.27;100448.98;1762157;81;21476;-44
2022/05/06 09:27:17;;;;;;;7.03;2.02;;;;;;;20.77;20.10;100446.32;1762306;80;20942;-45
2022/05/06 09:29:49;;;;;;;2.72;1.77;;;;;;;20.88;20.63;100453.94;1762030;81;21236;-44
2022/05/06 09:32:29;;;;;;;2.85;2.00;;;;;;;20.96;19.62;100451.33;1761707;81;20982;-44
2022/05/06 09:35:09;;;;;;;4.55;2.08;;;;;;;20.95;19.30;100448.41;1761736;81;21009;-45
2022/05/06 09:37:46;;;;;;;5.45;2.00;;;;;;;20.86;19.94;100441.17;1759496;80;20934;-44
2022/05/06 09:40:18;;;;;;;8.45;2.30;;;;;;;20.80;19.63;100442.78;1761951;81;20973;-44
2022/05/06 09:42:58;;;;;;;6.83;2.05;;;;;;;20.73;19.75;100444.97;1762400;81;21097;-44
2022/05/06 09:45:39;;;;;;;4.33;2.00;;;;;;;20.77;20.52;100442.97;1740498;81;21633;-44
2022/05/06 09:48:11;;;;;;;2.90;1.92;;;;;;;20.88;19.64;100445.67;1761012;81;21767;-44
2022/05/06 09:50:45;;;;;;;4.08;1.92;;;;;;;20.97;20.62;100456.25;1761682;80;20930;-44
2022/05/06 09:53:15;;;;;;;3.92;1.80;;;;;;;21.09;20.71;100438.66;1759487;80;21611;-44
2022/05/06 09:55:46;;;;;;;3.05;1.80;;;;;;;21.22;21.65;100437.02;1754665;81;21199;-44
2022/05/06 09:58:14;;;;;;;4.78;1.82;;;;;;;21.39;21.35;100437.30;1754899;81;21085;-45
2022/05/06 10:00:41;;;;;;;5.47;1.92;;;;;;;21.52;19.84;100435.01;1754805;81;20967;-45
2022/05/06 10:03:09;;;;;;;1.98;1.60;;;;;;;21.67;20.57;100442.56;1754674;81;21012;-45
2022/05/06 10:05:37;;;;;;;4.50;1.90;;;;;;;21.86;19.44;100439.23;1754625;80;21015;-44
2022/05/06 10:08:17;;;;;;;3.83;2.05;;;;;;;22.00;19.22;100437.73;1754700;81;21194;-45
2022/05/06 10:11:00;;;;;;;4.60;1.85;;;;;;;22.15;19.38;100442.50;1754525;81;20932;-44
2022/05/06 10:13:32;;;;;;;3.42;1.90;;;;;;;22.20;18.56;100435.16;1754399;81;21470;-44
2022/05/06 10:16:01;;;;;;;3.65;1.80;;;;;;;22.15;18.58;100438.95;1754753;81;21075;-45
2022/05/06 10:18:34;;;;;;;5.00;1.95;;;;;;;22.14;19.17;100429.09;1754612;81;20932;-45
2022/05/06 10:21:03;;;;;;;2.75;1.90;;;;;;;22.26;19.14;100430.75;1754518;81;21746;-45
2022/05/06 10:23:55;;;;;;;4.10;2.00;;;;;;;22.52;18.57;100427.84;1754872;81;21291;-44
2022/05/06 10:26:48;;;;;;;3.45;1.75;;;;;;;22.72;17.89;100431.56;1754491;81;21011;-44
2022/05/06 10:32:50;;;;;;;6.42;1.90;;;;;;;22.61;18.05;100419.83;1754681;81;21031;-44
2022/05/06 10:35:17;;;;;;;4.80;1.98;;;;;;;22.72;17.81;100419.13;1754926;81;21828;-44
2022/05/06 10:37:45;;;;;;;5.55;2.08;;;;;;;22.92;17.60;100413.70;1754536;81;21506;-45
2022/05/06 10:40:29;;;;;;;9.15;2.60;;;;;;;23.24;17.54;100415.97;1754742;81;20959;-44
2022/05/06 10:42:55;;;;;;;6.28;1.72;;;;;;;23.47;17.53;100409.72;1754667;81;20932;-45
2022/05/06 10:45:28;;;;;;;5.00;2.00;;;;;;;23.39;17.29;100407.63;1754807;81;21035;-45
2022/05/06 10:47:56;;;;;;;4.40;1.98;;;;;;;23.33;17.50;100405.17;1754819;81;21241;-45
2022/05/06 10:50:29;;;;;;;4.37;1.92;;;;;;;23.37;17.41;100407.28;1754483;81;21019;-45
2022/05/06 10:52:54;;;;;;;3.42;1.90;;;;;;;23.53;17.79;100406.02;1754352;80;21027;-44
2022/05/06 10:55:22;;;;;;;2.77;1.65;;;;;;;23.68;17.36;100411.50;1754454;81;21378;-45
2022/05/06 10:57:56;;;;;;;2.75;1.80;;;;;;;23.89;17.19;100404.01;1754605;81;21574;-45
2022/05/06 11:00:26;;;;;;;4.50;2.00;;;;;;;24.19;16.67;100391.38;1753583;81;22158;-45
2022/05/06 11:02:53;;;;;;;3.65;1.82;;;;;;;24.45;16.53;100394.58;1754265;81;21498;-45
2022/05/06 11:05:21;;;;;;;2.98;1.80;;;;;;;24.63;16.58;100392.22;1754384;81;20936;-45
2022/05/06 11:07:49;;;;;;;3.50;1.87;;;;;;;24.76;16.65;100385.98;1754441;80;20941;-45
2022/05/06 11:10:22;;;;;;;6.55;2.00;;;;;;;24.91;16.50;100378.94;1754856;81;21019;-45
2022/05/06 11:12:53;;;;;;;6.67;2.05;;;;;;;24.96;16.18;100379.81;1754433;81;20912;-45
2022/05/06 11:15:31;;;;;;;2.27;1.77;;;;;;;25.04;16.33;100375.64;1755141;81;20960;-45
2022/05/06 11:18:03;;;;;;;2.35;1.80;;;;;;;25.15;15.63;100372.01;1754612;81;21596;-45
2022/05/06 11:20:38;;;;;;;4.83;1.80;;;;;;;25.19;15.85;100374.08;1754418;81;21015;-45
2022/05/06 11:23:11;;;;;;;4.50;1.90;;;;;;;25.40;15.90;100370.78;1754627;81;21039;-45
2022/05/06 11:25:46;;;;;;;8.35;2.10;;;;;;;25.70;15.48;100373.02;1749054;81;21106;-45
2022/05/06 11:28:21;;;;;;;3.45;1.70;;;;;;;25.77;14.87;100372.20;1754681;81;21480;-45
2022/05/06 11:30:49;;;;;;;6.05;1.70;;;;;;;25.59;14.81;100374.69;1754864;81;21007;-45
2022/05/06 11:33:25;;;;;;;3.02;1.70;;;;;;;25.51;15.06;100369.13;1754776;81;21016;-45
2022/05/06 11:36:03;;;;;;;4.12;2.05;;;;;;;25.74;15.25;100368.92;1754777;81;21040;-45
2022/05/06 11:38:37;;;;;;;4.83;2.12;;;;;;;25.94;14.75;100359.05;1754543;81;21147;-45
2022/05/06 11:41:12;;;;;;;5.75;1.90;;;;;;;25.85;14.65;100351.97;1754306;81;21525;-45
2022/05/06 11:43:44;;;;;;;5.60;1.87;;;;;;;25.76;15.12;100350.41;1754358;81;21568;-45
2022/05/06 11:49:05;;;;;;;4.30;1.75;;;;;;;25.67;14.91;100344.70;1754419;81;21012;-45
2022/05/06 11:51:41;;;;;;;3.95;2.02;;;;;;;25.70;14.72;100350.80;1754482;81;21252;-45
2022/05/06 11:54:08;;;;;;;4.20;2.20;;;;;;;25.65;14.89;100344.39;1754479;81;21031;-45
2022/05/06 11:56:35;;;;;;;3.52;1.80;;;;;;;25.65;14.43;100352.11;1754720;81;21071;-45
2022/05/06 11:59:02;;;;;;;6.42;1.80;;;;;;;25.56;14.58;100341.46;1754368;81;21661;-45
2022/05/06 12:01:34;;;;;;;2.60;1.60;;;;;;;25.38;14.71;100335.72;1754679;81;21051;-45
2022/05/06 12:04:08;;;;;;;2.17;1.75;;;;;;;25.37;14.89;100333.38;1754990;81;21734;-45
2022/05/06 12:06:41;;;;;;;8.70;1.82;;;;;;;25.55;15.25;100324.63;1754694;80;21605;-45
2022/05/06 12:09:13;;;;;;;5.37;1.90;;;;;;;26.01;15.03;100324.09;1753548;80;21668;-46
2022/05/06 12:11:41;;;;;;;2.25;1.95;;;;;;;26.32;14.39;100318.25;1754681;81;21585;-45
2022/05/06 12:14:17;;;;;;;7.58;2.17;;;;;;;26.41;14.12;100312.63;1754831;81;21032;-45